sensor_id;sensor_type;location;lat;lon;timestamp;P1;durP1;ratioP1;P2;durP2;ratioP2
64651;SDS011;51062;45.120;37.660;2022-08-01T00:01:38;20.98;;;8.48;;
64651;SDS011;51062;45.120;37.660;2022-08-01T00:04:04;22.70;;;7.68;;
64651;SDS011;51062;45.120;37.660;2022-08-01T00:06:30;18.55;;;7.15;;
64651;SDS011;51062;45.120;37.660;2022-08-01T00:08:57;18.73;;;7.55;;
64651;SDS011;51062;45.120;37.660;2022-08-01T00:11:23;17.40;;;8.15;;
64651;SDS011;51062;45.120;37.660;2022-08-01T00:13:49;18.17;;;8.10;;
64651;SDS011;51062;45.120;37.660;2022-08-01T00:16:15;17.23;;;7.90;;
64651;SDS011;51062;45.120;37.660;2022-08-01T00:18:41;19.83;;;8.60;;
64651;SDS011;51062;45.120;37.660;2022-08-01T00:21:07;18.10;;;7.60;;
64651;SDS011;51062;45.120;37.660;2022-08-01T00:23:34;13.50;;;7.25;;
64651;SDS011;51062;45.120;37.660;2022-08-01T00:26:00;20.10;;;7.75;;
64651;SDS011;51062;45.120;37.660;2022-08-01T00:28:27;12.75;;;8.05;;
64651;SDS011;51062;45.120;37.660;2022-08-01T00:30:53;22.63;;;8.30;;
64651;SDS011;51062;45.120;37.660;2022-08-01T00:33:19;24.80;;;8.15;;
64651;SDS011;51062;45.120;37.660;2022-08-01T00:35:45;19.23;;;8.05;;
64651;SDS011;51062;45.120;37.660;2022-08-01T00:38:11;15.45;;;8.18;;
64651;SDS011;51062;45.120;37.660;2022-08-01T00:40:38;17.85;;;8.57;;
64651;SDS011;51062;45.120;37.660;2022-08-01T00:43:04;18.65;;;9.48;;
64651;SDS011;51062;45.120;37.660;2022-08-01T00:45:30;22.90;;;9.20;;
64651;SDS011;51062;45.120;37.660;2022-08-01T00:47:56;20.23;;;9.85;;
64651;SDS011;51062;45.120;37.660;2022-08-01T00:50:22;25.85;;;8.85;;
64651;SDS011;51062;45.120;37.660;2022-08-01T00:52:48;20.45;;;9.88;;
64651;SDS011;51062;45.120;37.660;2022-08-01T00:55:15;17.10;;;9.00;;
64651;SDS011;51062;45.120;37.660;2022-08-01T00:57:44;19.90;;;9.27;;
64651;SDS011;51062;45.120;37.660;2022-08-01T01:00:10;22.75;;;9.05;;
64651;SDS011;51062;45.120;37.660;2022-08-01T01:02:37;19.02;;;9.60;;
64651;SDS011;51062;45.120;37.660;2022-08-01T01:05:03;19.58;;;9.52;;
64651;SDS011;51062;45.120;37.660;2022-08-01T01:07:35;18.58;;;9.00;;
64651;SDS011;51062;45.120;37.660;2022-08-01T01:13:26;26.33;;;10.10;;
64651;SDS011;51062;45.120;37.660;2022-08-01T01:16:01;21.25;;;10.60;;
64651;SDS011;51062;45.120;37.660;2022-08-01T01:18:39;27.50;;;10.20;;
64651;SDS011;51062;45.120;37.660;2022-08-01T01:26:45;27.60;;;9.20;;
64651;SDS011;51062;45.120;37.660;2022-08-01T01:32:04;26.63;;;9.90;;
64651;SDS011;51062;45.120;37.660;2022-08-01T01:34:39;20.85;;;9.63;;
64651;SDS011;51062;45.120;37.660;2022-08-01T01:37:08;25.23;;;10.43;;
64651;SDS011;51062;45.120;37.660;2022-08-01T01:39:38;27.35;;;9.75;;
64651;SDS011;51062;45.120;37.660;2022-08-01T01:42:06;20.65;;;10.15;;
64651;SDS011;51062;45.120;37.660;2022-08-01T01:44:34;27.90;;;10.60;;
64651;SDS011;51062;45.120;37.660;2022-08-01T01:47:02;22.83;;;10.80;;
64651;SDS011;51062;45.120;37.660;2022-08-01T01:49:30;26.45;;;10.32;;
64651;SDS011;51062;45.120;37.660;2022-08-01T01:51:58;25.92;;;10.48;;
64651;SDS011;51062;45.120;37.660;2022-08-01T01:54:31;20.92;;;10.45;;
64651;SDS011;51062;45.120;37.660;2022-08-01T01:57:00;22.88;;;10.32;;
64651;SDS011;51062;45.120;37.660;2022-08-01T01:59:30;18.95;;;10.30;;
64651;SDS011;51062;45.120;37.660;2022-08-01T02:01:59;26.23;;;10.30;;
64651;SDS011;51062;45.120;37.660;2022-08-01T02:04:30;24.98;;;10.05;;
64651;SDS011;51062;45.120;37.660;2022-08-01T02:06:58;25.67;;;9.13;;
64651;SDS011;51062;45.120;37.660;2022-08-01T02:09:26;25.48;;;10.20;;
64651;SDS011;51062;45.120;37.660;2022-08-01T02:11:53;24.80;;;10.65;;
64651;SDS011;51062;45.120;37.660;2022-08-01T02:14:22;23.33;;;11.02;;
64651;SDS011;51062;45.120;37.660;2022-08-01T02:16:50;29.17;;;11.55;;
64651;SDS011;51062;45.120;37.660;2022-08-01T02:19:19;23.50;;;10.48;;
64651;SDS011;51062;45.120;37.660;2022-08-01T02:21:51;18.30;;;10.18;;
64651;SDS011;51062;45.120;37.660;2022-08-01T02:24:28;23.30;;;9.68;;
64651;SDS011;51062;45.120;37.660;2022-08-01T02:27:04;30.65;;;10.10;;
64651;SDS011;51062;45.120;37.660;2022-08-01T02:29:42;20.60;;;10.55;;
64651;SDS011;51062;45.120;37.660;2022-08-01T02:32:14;21.02;;;9.80;;
64651;SDS011;51062;45.120;37.660;2022-08-01T02:34:56;29.92;;;10.95;;
64651;SDS011;51062;45.120;37.660;2022-08-01T02:37:23;25.17;;;10.15;;
64651;SDS011;51062;45.120;37.660;2022-08-01T02:39:52;23.23;;;10.38;;
64651;SDS011;51062;45.120;37.660;2022-08-01T02:42:19;29.63;;;10.75;;
64651;SDS011;51062;45.120;37.660;2022-08-01T02:44:47;28.48;;;11.77;;
64651;SDS011;51062;45.120;37.660;2022-08-01T02:47:15;23.42;;;10.52;;
64651;SDS011;51062;45.120;37.660;2022-08-01T02:49:45;29.33;;;12.18;;
64651;SDS011;51062;45.120;37.660;2022-08-01T02:52:14;28.75;;;10.40;;
64651;SDS011;51062;45.120;37.660;2022-08-01T02:54:43;21.02;;;10.10;;
64651;SDS011;51062;45.120;37.660;2022-08-01T02:57:11;21.58;;;9.93;;
64651;SDS011;51062;45.120;37.660;2022-08-01T02:59:40;23.90;;;10.68;;
64651;SDS011;51062;45.120;37.660;2022-08-01T03:02:08;27.30;;;11.02;;
64651;SDS011;51062;45.120;37.660;2022-08-01T03:04:36;35.58;;;11.25;;
64651;SDS011;51062;45.120;37.660;2022-08-01T03:07:05;24.70;;;11.00;;
64651;SDS011;51062;45.120;37.660;2022-08-01T03:09:34;26.17;;;11.70;;
64651;SDS011;51062;45.120;37.660;2022-08-01T03:12:04;25.00;;;10.30;;
64651;SDS011;51062;45.120;37.660;2022-08-01T03:14:36;23.02;;;10.90;;
64651;SDS011;51062;45.120;37.660;2022-08-01T03:17:05;22.00;;;10.45;;
64651;SDS011;51062;45.120;37.660;2022-08-01T03:19:33;23.88;;;11.63;;
64651;SDS011;51062;45.120;37.660;2022-08-01T03:21:59;22.60;;;11.02;;
64651;SDS011;51062;45.120;37.660;2022-08-01T03:24:31;24.33;;;11.48;;
64651;SDS011;51062;45.120;37.660;2022-08-01T03:27:00;25.95;;;11.80;;
64651;SDS011;51062;45.120;37.660;2022-08-01T03:29:27;28.58;;;11.95;;
64651;SDS011;51062;45.120;37.660;2022-08-01T03:31:57;26.98;;;11.65;;
64651;SDS011;51062;45.120;37.660;2022-08-01T03:34:25;24.17;;;11.38;;
64651;SDS011;51062;45.120;37.660;2022-08-01T03:36:54;25.27;;;12.40;;
64651;SDS011;51062;45.120;37.660;2022-08-01T03:39:26;26.73;;;12.35;;
64651;SDS011;51062;45.120;37.660;2022-08-01T03:42:12;21.95;;;11.95;;
64651;SDS011;51062;45.120;37.660;2022-08-01T03:44:45;29.00;;;12.18;;
64651;SDS011;51062;45.120;37.660;2022-08-01T03:47:18;26.15;;;11.35;;
64651;SDS011;51062;45.120;37.660;2022-08-01T03:49:47;24.98;;;11.98;;
64651;SDS011;51062;45.120;37.660;2022-08-01T03:52:17;27.60;;;11.68;;
64651;SDS011;51062;45.120;37.660;2022-08-01T03:54:46;32.85;;;11.10;;
64651;SDS011;51062;45.120;37.660;2022-08-01T03:57:14;21.85;;;10.32;;
64651;SDS011;51062;45.120;37.660;2022-08-01T03:59:42;22.80;;;11.25;;
64651;SDS011;51062;45.120;37.660;2022-08-01T04:02:09;26.30;;;11.00;;
64651;SDS011;51062;45.120;37.660;2022-08-01T04:04:35;28.98;;;11.60;;
64651;SDS011;51062;45.120;37.660;2022-08-01T04:07:02;26.05;;;10.43;;
64651;SDS011;51062;45.120;37.660;2022-08-01T04:09:33;20.48;;;10.45;;
64651;SDS011;51062;45.120;37.660;2022-08-01T04:11:59;27.27;;;11.40;;
64651;SDS011;51062;45.120;37.660;2022-08-01T04:14:26;22.50;;;10.80;;
64651;SDS011;51062;45.120;37.660;2022-08-01T04:16:53;22.80;;;10.80;;
64651;SDS011;51062;45.120;37.660;2022-08-01T04:19:20;25.95;;;10.60;;
64651;SDS011;51062;45.120;37.660;2022-08-01T04:21:46;26.55;;;10.38;;
64651;SDS011;51062;45.120;37.660;2022-08-01T04:24:14;25.58;;;11.40;;
64651;SDS011;51062;45.120;37.660;2022-08-01T04:26:43;30.55;;;12.02;;
64651;SDS011;51062;45.120;37.660;2022-08-01T04:29:11;28.08;;;11.60;;
64651;SDS011;51062;45.120;37.660;2022-08-01T04:31:40;29.45;;;11.82;;
64651;SDS011;51062;45.120;37.660;2022-08-01T04:34:09;25.90;;;11.70;;
64651;SDS011;51062;45.120;37.660;2022-08-01T04:36:41;27.70;;;11.65;;
64651;SDS011;51062;45.120;37.660;2022-08-01T04:39:08;28.15;;;12.23;;
64651;SDS011;51062;45.120;37.660;2022-08-01T04:41:35;26.42;;;12.73;;
64651;SDS011;51062;45.120;37.660;2022-08-01T04:44:02;24.73;;;12.15;;
64651;SDS011;51062;45.120;37.660;2022-08-01T04:46:30;21.65;;;11.45;;
64651;SDS011;51062;45.120;37.660;2022-08-01T04:48:57;25.35;;;11.40;;
64651;SDS011;51062;45.120;37.660;2022-08-01T04:51:24;60.70;;;12.90;;
64651;SDS011;51062;45.120;37.660;2022-08-01T04:53:50;25.00;;;11.65;;
64651;SDS011;51062;45.120;37.660;2022-08-01T04:56:17;231.20;;;18.63;;
64651;SDS011;51062;45.120;37.660;2022-08-01T04:58:46;24.33;;;11.05;;
64651;SDS011;51062;45.120;37.660;2022-08-01T05:01:12;29.60;;;11.10;;
64651;SDS011;51062;45.120;37.660;2022-08-01T05:03:38;20.95;;;11.88;;
64651;SDS011;51062;45.120;37.660;2022-08-01T05:06:05;22.58;;;10.40;;
64651;SDS011;51062;45.120;37.660;2022-08-01T05:08:31;28.02;;;11.43;;
64651;SDS011;51062;45.120;37.660;2022-08-01T05:10:58;26.95;;;11.45;;
64651;SDS011;51062;45.120;37.660;2022-08-01T05:13:24;17.55;;;10.23;;
64651;SDS011;51062;45.120;37.660;2022-08-01T05:15:51;28.30;;;11.00;;
64651;SDS011;51062;45.120;37.660;2022-08-01T05:18:18;20.23;;;11.15;;
64651;SDS011;51062;45.120;37.660;2022-08-01T05:20:44;22.10;;;11.23;;
64651;SDS011;51062;45.120;37.660;2022-08-01T05:23:10;22.30;;;10.23;;
64651;SDS011;51062;45.120;37.660;2022-08-01T05:25:36;20.33;;;11.02;;
64651;SDS011;51062;45.120;37.660;2022-08-01T05:28:04;18.00;;;10.68;;
64651;SDS011;51062;45.120;37.660;2022-08-01T05:30:30;18.75;;;8.88;;
64651;SDS011;51062;45.120;37.660;2022-08-01T05:32:56;24.13;;;9.90;;
64651;SDS011;51062;45.120;37.660;2022-08-01T05:35:22;28.30;;;10.45;;
64651;SDS011;51062;45.120;37.660;2022-08-01T05:37:48;20.65;;;9.20;;
64651;SDS011;51062;45.120;37.660;2022-08-01T05:40:14;16.25;;;7.80;;
64651;SDS011;51062;45.120;37.660;2022-08-01T05:42:40;17.88;;;8.00;;
64651;SDS011;51062;45.120;37.660;2022-08-01T05:45:07;22.20;;;8.55;;
64651;SDS011;51062;45.120;37.660;2022-08-01T05:47:33;17.80;;;8.65;;
64651;SDS011;51062;45.120;37.660;2022-08-01T05:49:59;16.40;;;7.82;;
64651;SDS011;51062;45.120;37.660;2022-08-01T05:52:25;21.17;;;8.07;;
64651;SDS011;51062;45.120;37.660;2022-08-01T05:54:51;18.55;;;7.95;;
64651;SDS011;51062;45.120;37.660;2022-08-01T05:57:17;19.40;;;8.40;;
64651;SDS011;51062;45.120;37.660;2022-08-01T05:59:44;16.75;;;7.63;;
64651;SDS011;51062;45.120;37.660;2022-08-01T06:02:10;15.55;;;7.75;;
64651;SDS011;51062;45.120;37.660;2022-08-01T06:04:37;15.40;;;7.03;;
64651;SDS011;51062;45.120;37.660;2022-08-01T06:07:03;15.57;;;7.05;;
64651;SDS011;51062;45.120;37.660;2022-08-01T06:09:29;17.90;;;7.32;;
64651;SDS011;51062;45.120;37.660;2022-08-01T06:11:56;11.35;;;6.97;;
64651;SDS011;51062;45.120;37.660;2022-08-01T06:14:22;14.65;;;6.70;;
64651;SDS011;51062;45.120;37.660;2022-08-01T06:16:48;10.77;;;6.47;;
64651;SDS011;51062;45.120;37.660;2022-08-01T06:19:14;14.15;;;6.25;;
64651;SDS011;51062;45.120;37.660;2022-08-01T06:21:40;18.52;;;7.50;;
64651;SDS011;51062;45.120;37.660;2022-08-01T06:24:06;12.52;;;5.95;;
64651;SDS011;51062;45.120;37.660;2022-08-01T06:26:33;13.77;;;6.00;;
64651;SDS011;51062;45.120;37.660;2022-08-01T06:29:00;11.80;;;6.60;;
64651;SDS011;51062;45.120;37.660;2022-08-01T06:31:26;9.18;;;6.22;;
64651;SDS011;51062;45.120;37.660;2022-08-01T06:33:52;12.82;;;6.05;;
64651;SDS011;51062;45.120;37.660;2022-08-01T06:36:18;12.07;;;6.38;;
64651;SDS011;51062;45.120;37.660;2022-08-01T06:38:45;15.20;;;6.50;;
64651;SDS011;51062;45.120;37.660;2022-08-01T06:41:11;10.00;;;5.57;;
64651;SDS011;51062;45.120;37.660;2022-08-01T06:43:37;11.90;;;6.35;;
64651;SDS011;51062;45.120;37.660;2022-08-01T06:46:04;9.93;;;5.80;;
64651;SDS011;51062;45.120;37.660;2022-08-01T06:48:30;19.13;;;7.00;;
64651;SDS011;51062;45.120;37.660;2022-08-01T06:50:56;11.63;;;6.32;;
64651;SDS011;51062;45.120;37.660;2022-08-01T06:53:35;12.93;;;5.97;;
64651;SDS011;51062;45.120;37.660;2022-08-01T06:56:02;13.30;;;6.60;;
64651;SDS011;51062;45.120;37.660;2022-08-01T06:58:29;13.02;;;6.18;;
64651;SDS011;51062;45.120;37.660;2022-08-01T07:00:55;13.25;;;6.28;;
64651;SDS011;51062;45.120;37.660;2022-08-01T07:03:21;16.90;;;6.80;;
64651;SDS011;51062;45.120;37.660;2022-08-01T07:05:47;11.88;;;6.57;;
64651;SDS011;51062;45.120;37.660;2022-08-01T07:08:13;12.82;;;6.47;;
64651;SDS011;51062;45.120;37.660;2022-08-01T07:10:40;12.27;;;5.82;;
64651;SDS011;51062;45.120;37.660;2022-08-01T07:13:06;13.13;;;6.88;;
64651;SDS011;51062;45.120;37.660;2022-08-01T07:15:32;10.75;;;6.40;;
64651;SDS011;51062;45.120;37.660;2022-08-01T07:17:58;11.45;;;6.72;;
64651;SDS011;51062;45.120;37.660;2022-08-01T07:20:26;10.48;;;5.68;;
64651;SDS011;51062;45.120;37.660;2022-08-01T07:22:53;10.32;;;5.85;;
64651;SDS011;51062;45.120;37.660;2022-08-01T07:25:19;10.73;;;6.13;;
64651;SDS011;51062;45.120;37.660;2022-08-01T07:27:45;10.32;;;5.40;;
64651;SDS011;51062;45.120;37.660;2022-08-01T07:30:11;11.85;;;5.97;;
64651;SDS011;51062;45.120;37.660;2022-08-01T07:32:38;20.08;;;6.07;;
64651;SDS011;51062;45.120;37.660;2022-08-01T07:35:04;12.50;;;6.20;;
64651;SDS011;51062;45.120;37.660;2022-08-01T07:37:31;14.90;;;5.93;;
64651;SDS011;51062;45.120;37.660;2022-08-01T07:39:57;18.73;;;6.40;;
64651;SDS011;51062;45.120;37.660;2022-08-01T07:42:23;14.85;;;5.20;;
64651;SDS011;51062;45.120;37.660;2022-08-01T07:44:49;12.15;;;5.18;;
64651;SDS011;51062;45.120;37.660;2022-08-01T07:47:15;14.43;;;5.95;;
64651;SDS011;51062;45.120;37.660;2022-08-01T07:49:42;12.65;;;5.38;;
64651;SDS011;51062;45.120;37.660;2022-08-01T07:52:08;12.77;;;5.57;;
64651;SDS011;51062;45.120;37.660;2022-08-01T07:54:34;11.80;;;5.68;;
64651;SDS011;51062;45.120;37.660;2022-08-01T07:57:01;12.80;;;5.70;;
64651;SDS011;51062;45.120;37.660;2022-08-01T07:59:28;13.98;;;5.60;;
64651;SDS011;51062;45.120;37.660;2022-08-01T08:01:54;8.43;;;5.10;;
64651;SDS011;51062;45.120;37.660;2022-08-01T08:04:20;10.88;;;5.50;;
64651;SDS011;51062;45.120;37.660;2022-08-01T08:06:46;9.77;;;5.78;;
64651;SDS011;51062;45.120;37.660;2022-08-01T08:09:13;12.77;;;5.97;;
64651;SDS011;51062;45.120;37.660;2022-08-01T08:11:41;12.30;;;5.28;;
64651;SDS011;51062;45.120;37.660;2022-08-01T08:14:08;15.27;;;5.88;;
64651;SDS011;51062;45.120;37.660;2022-08-01T08:16:35;12.98;;;6.22;;
64651;SDS011;51062;45.120;37.660;2022-08-01T08:19:01;14.90;;;6.60;;
64651;SDS011;51062;45.120;37.660;2022-08-01T08:21:27;22.40;;;8.43;;
64651;SDS011;51062;45.120;37.660;2022-08-01T08:23:53;19.88;;;5.90;;
64651;SDS011;51062;45.120;37.660;2022-08-01T08:26:38;11.23;;;5.70;;
64651;SDS011;51062;45.120;37.660;2022-08-01T08:29:04;15.15;;;5.35;;
64651;SDS011;51062;45.120;37.660;2022-08-01T08:31:31;13.10;;;5.65;;
64651;SDS011;51062;45.120;37.660;2022-08-01T08:33:57;10.52;;;5.50;;
64651;SDS011;51062;45.120;37.660;2022-08-01T08:36:24;15.88;;;6.72;;
64651;SDS011;51062;45.120;37.660;2022-08-01T08:38:50;16.30;;;8.23;;
64651;SDS011;51062;45.120;37.660;2022-08-01T08:41:16;16.67;;;9.50;;
64651;SDS011;51062;45.120;37.660;2022-08-01T08:43:43;18.83;;;11.05;;
64651;SDS011;51062;45.120;37.660;2022-08-01T08:46:09;10.57;;;5.43;;
64651;SDS011;51062;45.120;37.660;2022-08-01T08:48:39;44.03;;;20.08;;
64651;SDS011;51062;45.120;37.660;2022-08-01T08:51:07;20.50;;;11.52;;
64651;SDS011;51062;45.120;37.660;2022-08-01T08:53:37;14.18;;;6.15;;
64651;SDS011;51062;45.120;37.660;2022-08-01T08:56:08;18.52;;;8.68;;
64651;SDS011;51062;45.120;37.660;2022-08-01T08:58:38;18.77;;;6.97;;
64651;SDS011;51062;45.120;37.660;2022-08-01T09:01:06;22.00;;;9.10;;
64651;SDS011;51062;45.120;37.660;2022-08-01T09:03:34;15.02;;;6.35;;
64651;SDS011;51062;45.120;37.660;2022-08-01T09:06:00;14.48;;;5.80;;
64651;SDS011;51062;45.120;37.660;2022-08-01T09:08:26;13.88;;;7.30;;
64651;SDS011;51062;45.120;37.660;2022-08-01T09:10:53;12.75;;;8.88;;
64651;SDS011;51062;45.120;37.660;2022-08-01T09:13:19;19.83;;;11.18;;
64651;SDS011;51062;45.120;37.660;2022-08-01T09:15:54;18.23;;;6.53;;
64651;SDS011;51062;45.120;37.660;2022-08-01T09:23:38;45.35;;;19.33;;
64651;SDS011;51062;45.120;37.660;2022-08-01T09:26:14;19.15;;;6.55;;
64651;SDS011;51062;45.120;37.660;2022-08-01T09:28:43;10.52;;;6.80;;
64651;SDS011;51062;45.120;37.660;2022-08-01T09:31:12;16.42;;;5.95;;
64651;SDS011;51062;45.120;37.660;2022-08-01T09:33:50;15.43;;;8.23;;
64651;SDS011;51062;45.120;37.660;2022-08-01T09:36:24;9.55;;;5.15;;
64651;SDS011;51062;45.120;37.660;2022-08-01T09:38:53;37.22;;;6.10;;
64651;SDS011;51062;45.120;37.660;2022-08-01T09:41:30;13.15;;;6.25;;
64651;SDS011;51062;45.120;37.660;2022-08-01T09:43:57;22.50;;;5.82;;
64651;SDS011;51062;45.120;37.660;2022-08-01T09:46:24;14.02;;;5.00;;
64651;SDS011;51062;45.120;37.660;2022-08-01T09:51:33;11.07;;;5.22;;
64651;SDS011;51062;45.120;37.660;2022-08-01T09:54:01;27.55;;;6.40;;
64651;SDS011;51062;45.120;37.660;2022-08-01T09:56:36;17.40;;;5.07;;
64651;SDS011;51062;45.120;37.660;2022-08-01T09:59:04;82.47;;;9.18;;
64651;SDS011;51062;45.120;37.660;2022-08-01T10:01:47;12.90;;;4.90;;
64651;SDS011;51062;45.120;37.660;2022-08-01T10:04:18;12.88;;;5.25;;
64651;SDS011;51062;45.120;37.660;2022-08-01T10:06:46;12.38;;;5.20;;
64651;SDS011;51062;45.120;37.660;2022-08-01T10:09:31;10.50;;;4.40;;
64651;SDS011;51062;45.120;37.660;2022-08-01T10:12:03;10.10;;;4.70;;
64651;SDS011;51062;45.120;37.660;2022-08-01T10:14:30;18.08;;;4.75;;
64651;SDS011;51062;45.120;37.660;2022-08-01T10:16:58;18.10;;;4.88;;
64651;SDS011;51062;45.120;37.660;2022-08-01T10:19:26;8.88;;;4.75;;
64651;SDS011;51062;45.120;37.660;2022-08-01T10:21:54;13.80;;;4.70;;
64651;SDS011;51062;45.120;37.660;2022-08-01T10:24:21;14.40;;;4.95;;
64651;SDS011;51062;45.120;37.660;2022-08-01T10:26:49;9.60;;;4.53;;
64651;SDS011;51062;45.120;37.660;2022-08-01T10:29:18;9.73;;;4.28;;
64651;SDS011;51062;45.120;37.660;2022-08-01T10:31:48;10.00;;;4.45;;
64651;SDS011;51062;45.120;37.660;2022-08-01T10:34:14;10.98;;;4.95;;
64651;SDS011;51062;45.120;37.660;2022-08-01T10:36:44;8.68;;;4.40;;
64651;SDS011;51062;45.120;37.660;2022-08-01T10:39:11;13.25;;;4.38;;
64651;SDS011;51062;45.120;37.660;2022-08-01T10:41:38;14.20;;;4.55;;
64651;SDS011;51062;45.120;37.660;2022-08-01T10:44:08;18.80;;;7.00;;
64651;SDS011;51062;45.120;37.660;2022-08-01T10:46:39;8.25;;;4.45;;
64651;SDS011;51062;45.120;37.660;2022-08-01T10:49:16;9.02;;;4.18;;
64651;SDS011;51062;45.120;37.660;2022-08-01T10:51:45;9.73;;;4.07;;
64651;SDS011;51062;45.120;37.660;2022-08-01T10:54:12;13.38;;;4.25;;
64651;SDS011;51062;45.120;37.660;2022-08-01T10:56:39;13.77;;;4.50;;
64651;SDS011;51062;45.120;37.660;2022-08-01T10:59:06;16.10;;;4.85;;
64651;SDS011;51062;45.120;37.660;2022-08-01T11:01:32;12.23;;;4.32;;
64651;SDS011;51062;45.120;37.660;2022-08-01T11:09:04;8.52;;;3.47;;
64651;SDS011;51062;45.120;37.660;2022-08-01T11:14:23;8.25;;;3.95;;
64651;SDS011;51062;45.120;37.660;2022-08-01T11:16:50;12.52;;;3.65;;
64651;SDS011;51062;45.120;37.660;2022-08-01T11:19:16;13.40;;;3.30;;
64651;SDS011;51062;45.120;37.660;2022-08-01T11:27:25;8.15;;;3.05;;
64651;SDS011;51062;45.120;37.660;2022-08-01T11:32:48;7.72;;;3.63;;
64651;SDS011;51062;45.120;37.660;2022-08-01T11:35:19;10.95;;;3.55;;
64651;SDS011;51062;45.120;37.660;2022-08-01T11:37:46;7.95;;;3.70;;
64651;SDS011;51062;45.120;37.660;2022-08-01T11:40:16;12.60;;;3.60;;
64651;SDS011;51062;45.120;37.660;2022-08-01T11:42:47;19.92;;;4.05;;
64651;SDS011;51062;45.120;37.660;2022-08-01T11:45:14;53.10;;;7.40;;
64651;SDS011;51062;45.120;37.660;2022-08-01T11:47:47;19.42;;;4.45;;
64651;SDS011;51062;45.120;37.660;2022-08-01T11:50:33;7.03;;;3.27;;
64651;SDS011;51062;45.120;37.660;2022-08-01T11:53:02;7.75;;;2.67;;
64651;SDS011;51062;45.120;37.660;2022-08-01T11:55:31;27.05;;;3.10;;
64651;SDS011;51062;45.120;37.660;2022-08-01T11:58:04;8.30;;;3.10;;
64651;SDS011;51062;45.120;37.660;2022-08-01T12:00:32;28.13;;;3.53;;
64651;SDS011;51062;45.120;37.660;2022-08-01T12:03:04;11.70;;;3.33;;
64651;SDS011;51062;45.120;37.660;2022-08-01T12:05:34;9.70;;;2.92;;
64651;SDS011;51062;45.120;37.660;2022-08-01T12:08:02;18.05;;;3.15;;
64651;SDS011;51062;45.120;37.660;2022-08-01T12:10:35;16.85;;;3.53;;
64651;SDS011;51062;45.120;37.660;2022-08-01T12:13:03;12.82;;;3.45;;
64651;SDS011;51062;45.120;37.660;2022-08-01T12:15:35;7.13;;;3.00;;
64651;SDS011;51062;45.120;37.660;2022-08-01T12:18:04;7.70;;;2.55;;
64651;SDS011;51062;45.120;37.660;2022-08-01T12:20:36;6.57;;;2.53;;
64651;SDS011;51062;45.120;37.660;2022-08-01T12:23:07;7.97;;;2.75;;
64651;SDS011;51062;45.120;37.660;2022-08-01T12:25:35;8.70;;;2.50;;
64651;SDS011;51062;45.120;37.660;2022-08-01T12:28:03;92.75;;;5.60;;
64651;SDS011;51062;45.120;37.660;2022-08-01T12:30:30;6.97;;;2.70;;
64651;SDS011;51062;45.120;37.660;2022-08-01T12:33:05;7.43;;;2.22;;
64651;SDS011;51062;45.120;37.660;2022-08-01T12:35:35;6.15;;;2.60;;
64651;SDS011;51062;45.120;37.660;2022-08-01T12:38:05;9.20;;;2.33;;
64651;SDS011;51062;45.120;37.660;2022-08-01T12:40:33;6.30;;;2.75;;
64651;SDS011;51062;45.120;37.660;2022-08-01T12:43:07;14.32;;;2.42;;
64651;SDS011;51062;45.120;37.660;2022-08-01T12:45:35;26.23;;;3.20;;
64651;SDS011;51062;45.120;37.660;2022-08-01T12:48:08;3.95;;;2.28;;
64651;SDS011;51062;45.120;37.660;2022-08-01T12:50:41;24.90;;;2.55;;
64651;SDS011;51062;45.120;37.660;2022-08-01T12:53:09;7.85;;;2.47;;
64651;SDS011;51062;45.120;37.660;2022-08-01T12:55:45;11.05;;;2.50;;
64651;SDS011;51062;45.120;37.660;2022-08-01T12:58:16;5.18;;;2.40;;
64651;SDS011;51062;45.120;37.660;2022-08-01T13:00:44;8.95;;;2.47;;
64651;SDS011;51062;45.120;37.660;2022-08-01T13:03:21;9.82;;;2.75;;
64651;SDS011;51062;45.120;37.660;2022-08-01T13:05:51;10.25;;;2.28;;
64651;SDS011;51062;45.120;37.660;2022-08-01T13:08:23;39.30;;;3.40;;
64651;SDS011;51062;45.120;37.660;2022-08-01T13:11:02;6.07;;;2.17;;
64651;SDS011;51062;45.120;37.660;2022-08-01T13:13:38;5.80;;;2.53;;
64651;SDS011;51062;45.120;37.660;2022-08-01T13:16:06;10.70;;;2.25;;
64651;SDS011;51062;45.120;37.660;2022-08-01T13:18:34;7.15;;;2.65;;
64651;SDS011;51062;45.120;37.660;2022-08-01T13:21:11;6.13;;;2.25;;
64651;SDS011;51062;45.120;37.660;2022-08-01T13:26:41;6.90;;;2.80;;
64651;SDS011;51062;45.120;37.660;2022-08-01T13:29:12;17.92;;;3.33;;
64651;SDS011;51062;45.120;37.660;2022-08-01T13:31:40;7.78;;;2.95;;
64651;SDS011;51062;45.120;37.660;2022-08-01T13:34:06;8.68;;;2.65;;
64651;SDS011;51062;45.120;37.660;2022-08-01T13:36:33;61.35;;;4.88;;
64651;SDS011;51062;45.120;37.660;2022-08-01T13:39:00;6.03;;;3.00;;
64651;SDS011;51062;45.120;37.660;2022-08-01T13:41:46;16.25;;;3.13;;
64651;SDS011;51062;45.120;37.660;2022-08-01T13:44:13;13.60;;;3.80;;
64651;SDS011;51062;45.120;37.660;2022-08-01T13:46:40;12.82;;;2.90;;
64651;SDS011;51062;45.120;37.660;2022-08-01T13:49:09;4.97;;;2.70;;
64651;SDS011;51062;45.120;37.660;2022-08-01T13:51:36;6.97;;;2.83;;
64651;SDS011;51062;45.120;37.660;2022-08-01T13:54:03;10.90;;;2.92;;
64651;SDS011;51062;45.120;37.660;2022-08-01T13:56:31;9.23;;;3.30;;
64651;SDS011;51062;45.120;37.660;2022-08-01T13:58:57;9.57;;;3.03;;
64651;SDS011;51062;45.120;37.660;2022-08-01T14:01:24;12.77;;;3.58;;
64651;SDS011;51062;45.120;37.660;2022-08-01T14:03:50;5.35;;;2.97;;
64651;SDS011;51062;45.120;37.660;2022-08-01T14:06:18;14.13;;;2.83;;
64651;SDS011;51062;45.120;37.660;2022-08-01T14:08:48;13.82;;;2.80;;
64651;SDS011;51062;45.120;37.660;2022-08-01T14:11:15;23.40;;;3.15;;
64651;SDS011;51062;45.120;37.660;2022-08-01T14:13:41;9.27;;;2.97;;
64651;SDS011;51062;45.120;37.660;2022-08-01T14:16:07;31.30;;;3.70;;
64651;SDS011;51062;45.120;37.660;2022-08-01T14:18:34;5.85;;;2.60;;
64651;SDS011;51062;45.120;37.660;2022-08-01T14:21:00;12.38;;;3.67;;
64651;SDS011;51062;45.120;37.660;2022-08-01T14:23:26;23.02;;;9.15;;
64651;SDS011;51062;45.120;37.660;2022-08-01T14:25:53;4.85;;;2.70;;
64651;SDS011;51062;45.120;37.660;2022-08-01T14:28:19;64.28;;;25.48;;
64651;SDS011;51062;45.120;37.660;2022-08-01T14:30:46;35.75;;;11.90;;
64651;SDS011;51062;45.120;37.660;2022-08-01T14:33:13;84.40;;;29.92;;
64651;SDS011;51062;45.120;37.660;2022-08-01T14:35:39;33.75;;;12.05;;
64651;SDS011;51062;45.120;37.660;2022-08-01T14:38:06;11.68;;;4.30;;
64651;SDS011;51062;45.120;37.660;2022-08-01T14:40:33;19.75;;;7.65;;
64651;SDS011;51062;45.120;37.660;2022-08-01T14:43:00;35.55;;;11.55;;
64651;SDS011;51062;45.120;37.660;2022-08-01T14:45:27;39.45;;;15.43;;
64651;SDS011;51062;45.120;37.660;2022-08-01T14:47:53;35.13;;;9.20;;
64651;SDS011;51062;45.120;37.660;2022-08-01T14:50:19;14.02;;;3.63;;
64651;SDS011;51062;45.120;37.660;2022-08-01T14:52:46;19.80;;;7.38;;
64651;SDS011;51062;45.120;37.660;2022-08-01T14:55:12;19.00;;;7.95;;
64651;SDS011;51062;45.120;37.660;2022-08-01T14:57:39;23.52;;;8.63;;
64651;SDS011;51062;45.120;37.660;2022-08-01T15:00:07;31.98;;;12.38;;
64651;SDS011;51062;45.120;37.660;2022-08-01T15:02:41;34.15;;;11.98;;
64651;SDS011;51062;45.120;37.660;2022-08-01T15:05:08;23.92;;;9.52;;